createdAt,value
2018-07-24T00:00:04.665Z,94021.09
2018-07-24T00:02:33.430Z,94017.08
2018-07-24T00:05:02.255Z,94022.94
2018-07-24T00:07:31.045Z,94026.13
2018-07-24T00:10:01.540Z,94025.60
2018-07-24T00:12:30.269Z,94011.52
2018-07-24T00:14:58.975Z,94014.42
2018-07-24T00:17:27.854Z,94017.33
2018-07-24T00:19:56.659Z,94015.49
2018-07-24T00:22:25.746Z,94011.23
2018-07-24T00:24:54.438Z,94018.67
2018-07-24T00:27:23.185Z,94013.61
2018-07-24T00:29:52.095Z,94010.19
2018-07-24T00:32:20.829Z,94005.16
2018-07-24T00:34:49.563Z,94006.72
2018-07-24T00:37:18.490Z,94005.16
2018-07-24T00:39:47.653Z,94003.02
2018-07-24T00:42:16.374Z,93998.78
2018-07-24T00:44:45.092Z,94000.64
2018-07-24T00:47:13.888Z,93990.03
2018-07-24T00:49:42.639Z,93990.03
2018-07-24T00:52:11.396Z,93990.55
2018-07-24T00:54:40.207Z,93991.61
2018-07-24T00:57:08.942Z,93987.34
2018-07-24T00:59:37.701Z,93981.27
2018-07-24T01:02:06.486Z,93986.84
2018-07-24T01:04:35.363Z,93990.81
2018-07-24T01:07:04.260Z,93989.23
2018-07-24T01:09:33.015Z,93985.25
2018-07-24T01:12:01.732Z,93990.00
2018-07-24T01:14:30.519Z,93991.61
2018-07-24T01:16:59.238Z,93983.12
2018-07-24T01:19:28.521Z,93989.77
2018-07-24T01:21:57.259Z,93983.92
2018-07-24T01:24:26.020Z,93988.44
2018-07-24T01:26:54.814Z,93990.03
2018-07-24T01:29:23.555Z,93993.75
2018-07-24T01:31:52.354Z,93993.22
2018-07-24T01:34:21.610Z,93996.41
2018-07-24T01:36:50.301Z,93990.53
2018-07-24T01:39:19.015Z,93995.07
2018-07-24T01:41:47.825Z,93988.17
2018-07-24T01:44:16.593Z,93993.48
2018-07-24T01:46:45.336Z,93989.47
2018-07-24T01:49:14.107Z,93990.82
2018-07-24T01:51:42.842Z,93987.34
2018-07-24T01:54:11.604Z,93989.48
2018-07-24T01:56:40.353Z,93996.10
2018-07-24T01:59:09.118Z,93989.20
2018-07-24T02:01:37.908Z,93988.13
2018-07-24T02:04:06.665Z,93985.48
2018-07-24T02:06:35.462Z,93992.38
2018-07-24T02:09:06.033Z,93980.45
2018-07-24T02:11:34.755Z,93986.05
2018-07-24T02:14:03.510Z,93989.50
2018-07-24T02:16:32.192Z,93986.81
2018-07-24T02:19:01.165Z,93988.45
2018-07-24T02:21:30.410Z,93979.37
2018-07-24T02:23:59.178Z,93984.70
2018-07-24T02:26:27.934Z,93990.02
2018-07-24T02:28:56.658Z,93981.55
2018-07-24T02:31:25.441Z,93992.14
2018-07-24T02:33:54.203Z,93985.52
2018-07-24T02:36:22.955Z,93983.38
2018-07-24T02:38:51.741Z,93977.28
2018-07-24T02:41:20.474Z,93984.72
2018-07-24T02:43:49.570Z,93980.20
2018-07-24T02:46:18.291Z,93980.20
2018-07-24T02:48:47.033Z,93983.12
2018-07-24T02:51:15.872Z,93973.56
2018-07-24T02:53:45.052Z,93974.91
2018-07-24T02:56:13.746Z,93974.61
2018-07-24T02:58:42.470Z,93976.77
2018-07-24T03:01:11.233Z,93980.75
2018-07-24T03:03:40.009Z,93979.95
2018-07-24T03:06:08.742Z,93982.30
2018-07-24T03:08:37.471Z,93984.95
2018-07-24T03:11:06.272Z,93985.52
2018-07-24T03:13:35.103Z,93986.55
2018-07-24T03:16:03.953Z,93991.08
2018-07-24T03:18:32.694Z,93988.69
2018-07-24T03:21:01.512Z,93990.02
2018-07-24T03:23:30.325Z,93990.02
2018-07-24T03:25:59.104Z,93991.34
2018-07-24T03:28:27.859Z,93999.84
2018-07-24T03:30:56.683Z,93998.78
2018-07-24T03:33:25.459Z,93998.27
2018-07-24T03:35:54.260Z,94000.11
2018-07-24T03:38:23.035Z,94000.91
2018-07-24T03:40:51.987Z,93998.78
2018-07-24T03:43:20.740Z,93999.04
2018-07-24T03:45:49.469Z,94001.70
2018-07-24T03:48:18.306Z,94005.70
2018-07-24T03:50:47.104Z,94014.18
2018-07-24T03:53:15.839Z,94013.62
2018-07-24T03:55:44.676Z,94011.27
2018-07-24T03:58:13.487Z,94014.71
2018-07-24T04:00:42.337Z,94017.09
2018-07-24T04:03:11.074Z,94015.27
2018-07-24T04:05:39.858Z,94016.83
2018-07-24T04:08:08.621Z,94016.86
2018-07-24T04:10:37.480Z,94019.22
2018-07-24T04:13:06.239Z,94016.03
2018-07-24T04:15:35.201Z,94017.64
2018-07-24T04:18:04.029Z,94019.21
2018-07-24T04:20:32.743Z,94008.59
2018-07-24T04:23:01.485Z,94009.64
2018-07-24T04:25:30.185Z,94009.13
2018-07-24T04:27:58.903Z,94020.29
2018-07-24T04:30:27.618Z,94016.02
2018-07-24T04:32:56.303Z,94016.55
2018-07-24T04:35:25.056Z,94012.04
2018-07-24T04:37:53.802Z,94013.89
2018-07-24T04:40:22.551Z,94014.95
2018-07-24T04:42:51.656Z,94012.83
2018-07-24T04:45:20.374Z,94015.75
2018-07-24T04:47:49.117Z,94019.48
2018-07-24T04:50:17.945Z,94010.16
2018-07-24T04:52:46.765Z,94023.46
2018-07-24T04:57:43.277Z,94029.30
2018-07-24T05:00:12.246Z,94022.64
2018-07-24T05:02:41.048Z,94024.77
2018-07-24T05:05:10.414Z,94030.84
2018-07-24T05:07:39.147Z,94033.77
2018-07-24T05:10:07.947Z,94034.04
2018-07-24T05:12:36.673Z,94032.44
2018-07-24T05:15:05.513Z,94032.45
2018-07-24T05:17:34.328Z,94033.75
2018-07-24T05:20:03.089Z,94032.16
2018-07-24T05:22:31.857Z,94035.84
2018-07-24T05:25:00.773Z,94036.64
2018-07-24T05:27:29.655Z,94041.95
2018-07-24T05:29:58.451Z,94038.47
2018-07-24T05:32:27.194Z,94044.05
2018-07-24T05:34:55.912Z,94041.16
2018-07-24T05:37:24.676Z,94040.06
2018-07-24T05:39:53.402Z,94038.97
2018-07-24T05:42:22.381Z,94042.42
2018-07-24T05:44:51.134Z,94048.00
2018-07-24T05:47:19.887Z,94047.44
2018-07-24T05:49:48.690Z,94054.08
2018-07-24T05:52:17.564Z,94054.61
2018-07-24T05:54:46.811Z,94051.95
2018-07-24T05:57:15.707Z,94048.23
2018-07-24T05:59:44.590Z,94050.30
2018-07-24T06:02:13.839Z,94053.67
2018-07-24T06:04:42.597Z,94055.91
2018-07-24T06:07:11.327Z,94046.85
2018-07-24T06:09:40.151Z,94047.59
2018-07-24T06:12:08.878Z,94047.04
2018-07-24T06:14:37.666Z,94047.25
2018-07-24T06:17:06.445Z,94052.84
2018-07-24T06:19:35.459Z,94049.34
2018-07-24T06:22:04.525Z,94063.98
2018-07-24T06:24:33.257Z,94052.52
2018-07-24T06:27:02.034Z,94059.97
2018-07-24T06:29:30.779Z,94060.45
2018-07-24T06:31:59.554Z,94063.11
2018-07-24T06:34:28.399Z,94061.27
2018-07-24T06:36:57.286Z,94067.31
2018-07-24T06:39:26.205Z,94064.77
2018-07-24T06:41:55.083Z,94062.20
2018-07-24T06:44:23.989Z,94056.05
2018-07-24T06:46:52.923Z,94057.31
2018-07-24T06:49:21.638Z,94052.36
2018-07-24T06:51:50.536Z,94053.92
2018-07-24T06:54:19.456Z,94052.64
2018-07-24T06:56:48.245Z,94053.05
2018-07-24T06:59:17.037Z,94051.11
2018-07-24T07:01:45.771Z,94054.02
2018-07-24T07:04:14.522Z,94058.49
2018-07-24T07:06:43.254Z,94066.77
2018-07-24T07:09:12.041Z,94060.94
2018-07-24T07:11:40.846Z,94059.59
2018-07-24T07:14:09.665Z,94063.87
2018-07-24T07:16:38.542Z,94066.09
2018-07-24T07:19:07.375Z,94071.33
2018-07-24T07:21:36.176Z,94071.18
2018-07-24T07:24:05.099Z,94072.52
2018-07-24T07:26:33.869Z,94075.31
2018-07-24T07:29:03.072Z,94081.72
2018-07-24T07:31:32.023Z,94085.65
2018-07-24T07:34:00.778Z,94078.97
2018-07-24T07:36:29.659Z,94082.92
2018-07-24T07:38:58.408Z,94081.59
2018-07-24T07:41:27.200Z,94091.24
2018-07-24T07:44:02.447Z,94087.44
2018-07-24T07:46:31.556Z,94087.44
2018-07-24T07:49:00.388Z,94087.59
2018-07-24T07:51:29.240Z,94083.66
2018-07-24T07:53:58.936Z,94079.88
2018-07-24T07:56:27.721Z,94090.73
2018-07-24T07:58:56.499Z,94089.04
2018-07-24T08:01:25.299Z,94083.30
2018-07-24T08:03:54.097Z,94086.73
2018-07-24T08:06:23.018Z,94089.09
2018-07-24T08:08:51.742Z,94080.69
2018-07-24T08:11:20.474Z,94078.31
2018-07-24T08:13:49.304Z,94081.30
2018-07-24T08:16:18.101Z,94086.55
2018-07-24T08:18:46.837Z,94082.64
2018-07-24T08:21:15.606Z,94083.57
2018-07-24T08:23:44.401Z,94092.41
2018-07-24T08:26:13.133Z,94087.39
2018-07-24T08:28:41.899Z,94081.31
2018-07-24T08:31:10.685Z,94087.48
2018-07-24T08:33:39.512Z,94086.28
2018-07-24T08:36:08.335Z,94084.93
2018-07-24T08:38:37.116Z,94086.13
2018-07-24T08:41:06.055Z,94087.62
2018-07-24T08:43:34.825Z,94085.34
2018-07-24T08:46:03.688Z,94091.39
2018-07-24T08:48:32.744Z,94089.20
2018-07-24T08:51:01.574Z,94087.37
2018-07-24T08:53:30.616Z,94083.31
2018-07-24T08:55:59.357Z,94080.34
2018-07-24T08:58:28.162Z,94084.23
2018-07-24T09:00:57.032Z,94084.19
2018-07-24T09:03:26.264Z,94087.41
2018-07-24T09:05:56.073Z,94084.07
2018-07-24T09:08:24.834Z,94079.47
2018-07-24T09:10:53.602Z,94079.13
2018-07-24T09:13:22.363Z,94084.10
2018-07-24T09:15:51.102Z,94079.22
2018-07-24T09:18:19.858Z,94075.36
2018-07-24T09:20:48.720Z,94066.62
2018-07-24T09:23:17.604Z,94063.00
2018-07-24T09:25:46.424Z,94070.63
2018-07-24T09:28:15.139Z,94071.72
2018-07-24T09:30:43.984Z,94064.69
2018-07-24T09:33:12.758Z,94066.95
2018-07-24T09:35:41.485Z,94067.62
2018-07-24T09:38:10.228Z,94065.62
2018-07-24T09:40:38.984Z,94061.09
2018-07-24T09:43:07.828Z,94063.06
2018-07-24T09:45:36.619Z,94054.61
2018-07-24T09:48:05.560Z,94058.23
2018-07-24T09:50:34.422Z,94052.81
2018-07-24T09:53:03.392Z,94057.07
2018-07-24T09:55:32.163Z,94057.52
2018-07-24T09:58:00.921Z,94054.67
2018-07-24T10:00:34.824Z,94056.06
2018-07-24T10:03:03.702Z,94060.46
2018-07-24T10:05:32.452Z,94045.24
2018-07-24T10:08:01.238Z,94042.58
2018-07-24T10:10:30.002Z,94042.08
2018-07-24T10:12:58.822Z,94045.03
2018-07-24T10:15:28.182Z,94042.73
2018-07-24T10:17:57.193Z,94037.05
2018-07-24T10:20:25.923Z,94034.61
2018-07-24T10:22:54.630Z,94030.56
2018-07-24T10:25:23.485Z,94034.13
2018-07-24T10:27:52.235Z,94040.33
2018-07-24T10:30:22.093Z,94035.27
2018-07-24T10:32:51.004Z,94039.78
2018-07-24T10:35:19.874Z,94038.11
2018-07-24T10:37:48.635Z,94033.77
2018-07-24T10:40:17.387Z,94024.92
2018-07-24T10:42:46.595Z,94031.56
2018-07-24T10:45:15.683Z,94024.67
2018-07-24T10:47:44.448Z,94024.03
2018-07-24T10:50:13.322Z,94019.98
2018-07-24T10:52:42.626Z,94024.53
2018-07-24T10:55:11.413Z,94019.39
2018-07-24T10:57:40.271Z,94015.19
2018-07-24T11:00:09.256Z,94014.48
2018-07-24T11:02:38.017Z,94010.59
2018-07-24T11:05:06.819Z,94009.77
2018-07-24T11:07:35.772Z,94010.33
2018-07-24T11:10:04.976Z,94007.47
2018-07-24T11:12:34.460Z,94006.24
2018-07-24T11:15:03.882Z,94007.30
2018-07-24T11:17:33.451Z,93995.56
2018-07-24T11:20:02.346Z,93997.31
2018-07-24T11:22:31.265Z,93995.03
2018-07-24T11:25:00.182Z,93995.79
2018-07-24T11:27:29.010Z,93998.02
2018-07-24T11:29:58.457Z,93991.76
2018-07-24T11:32:27.273Z,93989.30
2018-07-24T11:34:56.047Z,93983.31
2018-07-24T11:37:24.801Z,93982.83
2018-07-24T11:39:53.718Z,93974.77
2018-07-24T11:42:22.707Z,93975.47
2018-07-24T11:44:51.539Z,93971.95
2018-07-24T11:47:20.386Z,93974.27
2018-07-24T11:49:49.091Z,93978.42
2018-07-24T11:52:18.249Z,93962.86
2018-07-24T11:54:47.059Z,93962.63
2018-07-24T11:57:15.982Z,93970.65
2018-07-24T11:59:44.809Z,93962.24
2018-07-24T12:02:13.665Z,93971.48
2018-07-24T12:04:42.537Z,93966.41
2018-07-24T12:07:11.602Z,93966.64
2018-07-24T12:09:40.731Z,93971.65
2018-07-24T12:12:09.586Z,93971.83
2018-07-24T12:14:38.529Z,93974.19
2018-07-24T12:17:08.149Z,93971.05
2018-07-24T12:19:37.224Z,93970.56
2018-07-24T12:22:06.329Z,93972.61
2018-07-24T12:24:35.194Z,93959.69
2018-07-24T12:27:06.904Z,93978.98
2018-07-24T12:29:35.856Z,93981.63
2018-07-24T12:32:04.755Z,93987.24
2018-07-24T12:34:33.700Z,94001.89
2018-07-24T12:37:02.719Z,93996.05
2018-07-24T12:39:31.616Z,94012.36
2018-07-24T12:42:00.890Z,94014.34
2018-07-24T12:44:29.759Z,94007.34
2018-07-24T12:46:58.576Z,94008.66
2018-07-24T12:49:27.395Z,94013.78
2018-07-24T12:51:56.354Z,94009.13
2018-07-24T12:54:25.312Z,94000.14
2018-07-24T12:56:54.287Z,93987.09
2018-07-24T12:59:23.432Z,93986.45
2018-07-24T13:01:52.473Z,93992.62
2018-07-24T13:04:21.387Z,93991.72
2018-07-24T13:06:50.321Z,93989.41
2018-07-24T13:09:19.229Z,93991.42
2018-07-24T13:11:48.122Z,93993.64
2018-07-24T13:14:17.001Z,93996.60
2018-07-24T13:16:45.828Z,94004.18
2018-07-24T13:19:14.696Z,94009.09
2018-07-24T13:21:43.514Z,94010.36
2018-07-24T13:24:12.330Z,94017.19
2018-07-24T13:26:41.165Z,94019.86
2018-07-24T13:29:10.101Z,94026.14
2018-07-24T13:31:38.972Z,94028.39
2018-07-24T13:34:07.872Z,94026.37
2018-07-24T13:36:36.752Z,94021.12
2018-07-24T13:39:08.496Z,94016.78
2018-07-24T13:41:37.317Z,94013.09
2018-07-24T13:44:06.341Z,94011.98
2018-07-24T13:46:35.120Z,94009.70
2018-07-24T13:49:04.305Z,93999.70
2018-07-24T13:51:33.178Z,93992.64
2018-07-24T13:54:02.962Z,93991.47
2018-07-24T13:56:31.744Z,93995.55
2018-07-24T13:59:00.675Z,93999.36
2018-07-24T14:01:29.609Z,94006.86
2018-07-24T14:03:59.209Z,93993.16
2018-07-24T14:06:28.137Z,93984.00
2018-07-24T14:08:56.942Z,93987.22
2018-07-24T14:11:25.811Z,93986.56
2018-07-24T14:13:54.634Z,93979.62
2018-07-24T14:16:23.597Z,93989.63
2018-07-24T14:18:52.821Z,93990.84
2018-07-24T14:21:21.616Z,93987.47
2018-07-24T14:23:50.476Z,93988.29
2018-07-24T14:26:19.477Z,93993.77
2018-07-24T14:28:48.282Z,93986.63
2018-07-24T14:31:17.261Z,93986.47
2018-07-24T14:33:46.132Z,93977.20
2018-07-24T14:36:14.982Z,93995.94
2018-07-24T14:38:43.905Z,93985.64
2018-07-24T14:41:12.760Z,93983.93
2018-07-24T14:43:41.817Z,93989.59
2018-07-24T14:46:10.657Z,93991.48
2018-07-24T14:48:41.138Z,93992.84
2018-07-24T14:51:10.154Z,94001.38
2018-07-24T14:53:39.037Z,94009.48
2018-07-24T14:56:07.909Z,94008.25
2018-07-24T14:58:36.743Z,94014.17
2018-07-24T15:01:05.694Z,94024.51
2018-07-24T15:03:34.564Z,94017.79
2018-07-24T15:06:03.329Z,94038.11
2018-07-24T15:08:32.206Z,94002.61
2018-07-24T15:11:00.948Z,94017.19
2018-07-24T15:13:29.733Z,94008.95
2018-07-24T15:15:59.037Z,94007.11
2018-07-24T15:18:27.748Z,94023.00
2018-07-24T15:20:56.616Z,94020.62
2018-07-24T15:23:25.393Z,94025.66
2018-07-24T15:25:54.165Z,94026.00
2018-07-24T15:28:23.043Z,94018.92
2018-07-24T15:30:51.804Z,94027.93
2018-07-24T15:33:20.634Z,94028.41
2018-07-24T15:35:49.509Z,94029.56
2018-07-24T15:38:18.397Z,94024.63
2018-07-24T15:40:47.606Z,94020.14
2018-07-24T15:43:17.208Z,94032.05
2018-07-24T15:45:46.094Z,94030.66
2018-07-24T15:48:14.924Z,94031.23
2018-07-24T15:50:43.827Z,94032.18
2018-07-24T15:53:12.696Z,94041.00
2018-07-24T15:55:41.548Z,94042.02
2018-07-24T15:58:10.414Z,94026.25
2018-07-24T16:00:39.367Z,94031.34
2018-07-24T16:03:08.223Z,94031.70
2018-07-24T16:05:43.582Z,94023.47
2018-07-24T16:08:12.374Z,94028.80
2018-07-24T16:10:41.158Z,94033.22
2018-07-24T16:13:09.965Z,94035.34
2018-07-24T16:15:40.129Z,94028.92
2018-07-24T16:18:09.095Z,94037.00
2018-07-24T16:20:38.185Z,94029.59
2018-07-24T16:23:07.237Z,94034.27
2018-07-24T16:25:36.010Z,94039.36
2018-07-24T16:28:05.008Z,94038.31
2018-07-24T16:30:33.837Z,94047.91
2018-07-24T16:33:02.603Z,94052.50
2018-07-24T16:35:31.371Z,94056.98
2018-07-24T16:38:00.200Z,94071.05
2018-07-24T16:40:29.110Z,94066.02
2018-07-24T16:42:58.429Z,94075.78
2018-07-24T16:45:27.310Z,94077.17
2018-07-24T16:47:56.195Z,94081.72
2018-07-24T16:50:25.017Z,94083.80
2018-07-24T16:52:54.050Z,94085.19
2018-07-24T16:55:22.864Z,94078.28
2018-07-24T16:57:52.132Z,94078.28
2018-07-24T17:00:21.149Z,94077.92
2018-07-24T17:02:49.988Z,94075.85
2018-07-24T17:05:18.983Z,94081.93
2018-07-24T17:07:47.766Z,94076.53
2018-07-24T17:10:16.581Z,94076.19
2018-07-24T17:12:51.963Z,94071.47
2018-07-24T17:15:20.810Z,94072.70
2018-07-24T17:17:49.578Z,94076.16
2018-07-24T17:20:18.333Z,94090.88
2018-07-24T17:22:47.620Z,94097.73
2018-07-24T17:25:16.495Z,94105.11
2018-07-24T17:27:45.349Z,94108.89
2018-07-24T17:30:15.066Z,94116.19
2018-07-24T17:32:43.934Z,94112.98
2018-07-24T17:35:12.874Z,94110.83
2018-07-24T17:37:42.078Z,94108.09
2018-07-24T17:40:10.936Z,94105.42
2018-07-24T17:42:39.813Z,94108.80
2018-07-24T17:45:08.665Z,94122.47
2018-07-24T17:47:38.381Z,94113.63
2018-07-24T17:50:07.642Z,94124.36
2018-07-24T17:52:36.494Z,94118.34
2018-07-24T17:55:05.712Z,94123.75
2018-07-24T17:57:34.572Z,94122.77
2018-07-24T18:00:05.366Z,94122.55
2018-07-24T18:02:34.431Z,94119.68
2018-07-24T18:05:03.308Z,94120.52
2018-07-24T18:07:32.175Z,94126.14
2018-07-24T18:10:01.557Z,94121.04
2018-07-24T18:12:30.457Z,94126.94
2018-07-24T18:14:59.409Z,94134.45
2018-07-24T18:17:28.370Z,94135.22
2018-07-24T18:19:57.474Z,94138.94
2018-07-24T18:22:26.260Z,94142.45
2018-07-24T18:24:55.026Z,94140.55
2018-07-24T18:27:24.370Z,94140.80
2018-07-24T18:29:53.250Z,94126.66
2018-07-24T18:32:25.132Z,94128.06
2018-07-24T18:34:54.306Z,94127.52
2018-07-24T18:37:23.498Z,94120.89
2018-07-24T18:39:54.854Z,94117.77
2018-07-24T18:42:23.964Z,94122.25
2018-07-24T18:44:52.773Z,94132.09
2018-07-24T18:47:22.104Z,94140.61
2018-07-24T18:49:51.172Z,94127.28
2018-07-24T18:52:19.995Z,94136.91
2018-07-24T18:54:48.925Z,94144.22
2018-07-24T18:57:17.663Z,94138.98
2018-07-24T18:59:46.448Z,94150.55
2018-07-24T19:02:15.285Z,94145.73
2018-07-24T19:04:44.474Z,94154.06
2018-07-24T19:07:13.262Z,94155.05
2018-07-24T19:09:42.088Z,94155.66
2018-07-24T19:12:11.095Z,94150.52
2018-07-24T19:14:39.871Z,94163.84
2018-07-24T19:17:08.811Z,94164.66
2018-07-24T19:19:42.531Z,94159.59
2018-07-24T19:22:11.427Z,94160.67
2018-07-24T19:24:40.229Z,94165.20
2018-07-24T19:27:08.969Z,94164.15
2018-07-24T19:29:37.900Z,94164.13
2018-07-24T19:32:07.088Z,94161.73
2018-07-24T19:34:37.533Z,94166.80
2018-07-24T19:37:06.305Z,94171.31
2018-07-24T19:39:35.520Z,94159.88
2018-07-24T19:42:04.329Z,94153.55
2018-07-24T19:44:33.634Z,94156.77
2018-07-24T19:47:02.452Z,94157.04
2018-07-24T19:49:31.419Z,94151.49
2018-07-24T19:52:00.329Z,94149.64
2018-07-24T19:54:29.180Z,94147.53
2018-07-24T19:56:57.981Z,94145.45
2018-07-24T19:59:26.845Z,94152.16
2018-07-24T20:01:55.638Z,94142.83
2018-07-24T20:04:24.808Z,94148.42
2018-07-24T20:06:53.637Z,94160.36
2018-07-24T20:09:22.847Z,94163.82
2018-07-24T20:11:51.644Z,94153.23
2018-07-24T20:14:20.489Z,94158.77
2018-07-24T20:16:49.293Z,94160.41
2018-07-24T20:19:18.011Z,94155.43
2018-07-24T20:21:46.978Z,94157.83
2018-07-24T20:24:15.823Z,94157.50
2018-07-24T20:26:44.574Z,94152.45
2018-07-24T20:29:13.358Z,94159.11
2018-07-24T20:31:42.535Z,94151.98
2018-07-24T20:34:11.381Z,94156.56
2018-07-24T20:36:40.224Z,94147.25
2018-07-24T20:39:10.968Z,94146.13
2018-07-24T20:41:40.158Z,94137.38
2018-07-24T20:44:09.409Z,94143.05
2018-07-24T20:46:38.153Z,94135.88
2018-07-24T20:49:07.128Z,94139.92
2018-07-24T20:51:36.033Z,94139.36
2018-07-24T20:54:04.817Z,94138.34
2018-07-24T20:56:34.058Z,94139.13
2018-07-24T20:59:03.038Z,94133.02
2018-07-24T21:01:31.909Z,94140.95
2018-07-24T21:04:00.837Z,94138.55
2018-07-24T21:06:29.647Z,94134.27
2018-07-24T21:08:58.498Z,94136.42
2018-07-24T21:11:27.313Z,94136.46
2018-07-24T21:13:56.138Z,94134.30
2018-07-24T21:16:24.948Z,94135.94
2018-07-24T21:18:53.825Z,94134.61
2018-07-24T21:21:22.624Z,94137.80
2018-07-24T21:23:51.510Z,94143.41
2018-07-24T21:26:20.299Z,94138.13
2018-07-24T21:28:49.053Z,94133.83
2018-07-24T21:31:17.875Z,94131.69
2018-07-24T21:33:46.653Z,94135.42
2018-07-24T21:36:15.431Z,94142.61
2018-07-24T21:38:44.213Z,94141.55
2018-07-24T21:41:13.004Z,94144.52
2018-07-24T21:43:41.777Z,94147.72
2018-07-24T21:46:10.542Z,94150.92
2018-07-24T21:48:39.336Z,94150.11
2018-07-24T21:51:08.091Z,94148.00
2018-07-24T21:53:36.975Z,94149.64
2018-07-24T21:56:05.743Z,94150.94
2018-07-24T21:58:34.514Z,94154.67
2018-07-24T22:01:10.900Z,94152.31
2018-07-24T22:03:39.688Z,94157.64
2018-07-24T22:06:08.911Z,94149.64
2018-07-24T22:08:37.984Z,94149.13
2018-07-24T22:11:07.274Z,94147.54
2018-07-24T22:13:36.594Z,94142.23
2018-07-24T22:16:05.456Z,94146.52
2018-07-24T22:18:34.306Z,94143.83
2018-07-24T22:21:03.051Z,94143.84
2018-07-24T22:23:31.804Z,94148.68
2018-07-24T22:26:00.568Z,94150.00
2018-07-24T22:28:29.357Z,94151.81
2018-07-24T22:30:58.175Z,94145.47
2018-07-24T22:33:27.290Z,94141.44
2018-07-24T22:35:56.071Z,94139.88
2018-07-24T22:38:24.834Z,94136.42
2018-07-24T22:40:53.595Z,94131.33
2018-07-24T22:43:22.356Z,94132.11
2018-07-24T22:45:51.138Z,94126.00
2018-07-24T22:48:19.978Z,94118.02
2018-07-24T22:50:48.756Z,94115.36
2018-07-24T22:53:17.539Z,94108.95
2018-07-24T22:55:46.278Z,94113.77
2018-07-24T22:58:14.995Z,94113.27
2018-07-24T23:00:43.949Z,94114.61
2018-07-24T23:03:12.697Z,94114.34
2018-07-24T23:05:41.467Z,94124.70
2018-07-24T23:08:10.170Z,94120.98
2018-07-24T23:10:38.962Z,94124.92
2018-07-24T23:13:08.114Z,94124.69
2018-07-24T23:15:36.936Z,94121.76
2018-07-24T23:18:05.965Z,94118.02
2018-07-24T23:20:34.669Z,94116.94
2018-07-24T23:23:03.435Z,94120.18
2018-07-24T23:25:32.200Z,94115.61
2018-07-24T23:28:00.970Z,94119.31
2018-07-24T23:30:29.784Z,94108.39
2018-07-24T23:32:58.534Z,94105.23
2018-07-24T23:35:27.238Z,94111.91
2018-07-24T23:37:56.048Z,94107.09
2018-07-24T23:40:24.836Z,94110.30
2018-07-24T23:42:53.572Z,94107.60
2018-07-24T23:45:22.367Z,94104.16
2018-07-24T23:47:51.141Z,94104.48
2018-07-24T23:50:19.885Z,94101.02
2018-07-24T23:52:48.653Z,94093.30
2018-07-24T23:55:17.394Z,94100.98
2018-07-24T23:57:46.527Z,94095.34
